Time;durP1;ratioP1;P1;durP2;ratioP2;P2;SDS_P1;SDS_P2;PMS_P1;PMS_P2;Temp;Humidity;BMP_temperature;BMP_pressure;BME280_temperature;BME280_humidity;BME280_pressure;Samples;Min_cycle;Max_cycle;Signal;HPM_P1;HPM_P2
2021/09/24 00:02:17;;;;;;;11.07;7.10;;;15.50;96.80;;;;;;5009412;28;20076;-83
2021/09/24 00:04:42;;;;;;;13.13;9.68;;;15.60;97.00;;;;;;5012782;28;20395;-84
2021/09/24 00:07:08;;;;;;;12.57;7.78;;;15.60;97.30;;;;;;5034839;28;20448;-84
2021/09/24 00:09:34;;;;;;;11.05;8.68;;;15.60;97.40;;;;;;5025060;28;20025;-84
2021/09/24 00:11:59;;;;;;;13.20;9.10;;;15.60;97.40;;;;;;5035638;28;20549;-83
2021/09/24 00:14:25;;;;;;;20.00;13.15;;;15.70;97.50;;;;;;5017113;28;20037;-83
2021/09/24 00:16:51;;;;;;;13.63;10.82;;;15.60;97.40;;;;;;4995207;28;20393;-83
2021/09/24 00:19:16;;;;;;;21.40;13.77;;;15.60;97.40;;;;;;5024794;28;20499;-83
2021/09/24 00:21:42;;;;;;;21.65;14.93;;;15.60;97.50;;;;;;4997562;28;20504;-83
2021/09/24 00:24:08;;;;;;;18.13;12.73;;;15.60;97.30;;;;;;5008356;28;20613;-83
2021/09/24 00:26:34;;;;;;;16.10;10.90;;;15.60;97.60;;;;;;5001101;28;20492;-83
2021/09/24 00:28:59;;;;;;;22.17;16.10;;;15.60;97.50;;;;;;4997254;28;20128;-83
2021/09/24 00:31:26;;;;;;;16.48;13.15;;;15.60;97.60;;;;;;5010154;28;20052;-83
2021/09/24 00:33:51;;;;;;;17.63;12.13;;;15.60;97.50;;;;;;4995320;28;20055;-83
2021/09/24 00:36:17;;;;;;;14.98;11.70;;;15.50;97.30;;;;;;4991213;28;20473;-84
2021/09/24 00:38:43;;;;;;;23.02;14.60;;;15.60;97.80;;;;;;5018420;28;20039;-83
2021/09/24 00:41:08;;;;;;;20.00;12.43;;;15.60;97.30;;;;;;5028623;28;20156;-83
2021/09/24 00:43:34;;;;;;;19.25;11.60;;;15.50;97.30;;;;;;5017440;28;20396;-83
2021/09/24 00:46:00;;;;;;;18.63;11.75;;;15.60;97.50;;;;;;5006949;28;20052;-83
2021/09/24 00:48:26;;;;;;;17.45;10.07;;;15.60;97.50;;;;;;5020008;28;20036;-83
2021/09/24 00:50:51;;;;;;;14.18;11.13;;;15.60;97.80;;;;;;5000141;28;20508;-83
2021/09/24 00:53:17;;;;;;;24.27;17.45;;;15.50;97.20;;;;;;5000896;28;20057;-83
2021/09/24 00:55:42;;;;;;;18.88;13.57;;;15.50;97.70;;;;;;5003356;28;20564;-84
2021/09/24 00:58:08;;;;;;;21.77;13.05;;;15.60;97.50;;;;;;5019858;28;20033;-83
2021/09/24 01:00:33;;;;;;;17.35;11.00;;;15.50;97.40;;;;;;4988329;28;20048;-83
2021/09/24 01:02:59;;;;;;;14.25;10.52;;;15.50;97.60;;;;;;5026712;28;20454;-84
2021/09/24 01:05:24;;;;;;;16.77;12.93;;;15.60;97.80;;;;;;5011415;28;20040;-83
2021/09/24 01:07:50;;;;;;;16.35;11.68;;;15.50;97.50;;;;;;5015812;28;20463;-83
2021/09/24 01:10:16;;;;;;;15.85;12.45;;;15.50;98.00;;;;;;5033926;28;20136;-84
2021/09/24 01:12:42;;;;;;;16.05;11.68;;;15.50;98.00;;;;;;5000639;28;20029;-84
2021/09/24 01:15:09;;;;;;;19.65;14.10;;;15.60;98.00;;;;;;4999595;28;20025;-83
2021/09/24 01:17:35;;;;;;;20.25;14.60;;;15.60;97.90;;;;;;5012613;28;20040;-84
2021/09/24 01:20:00;;;;;;;27.27;19.50;;;15.50;98.00;;;;;;5006012;28;20021;-84
2021/09/24 01:22:26;;;;;;;22.90;13.90;;;15.60;99.10;;;;;;5024163;28;20026;-83
2021/09/24 01:24:51;;;;;;;20.35;14.85;;;15.50;98.20;;;;;;4997453;28;20039;-84
2021/09/24 01:27:17;;;;;;;25.58;16.73;;;15.60;98.40;;;;;;5026030;28;20472;-84
2021/09/24 01:29:42;;;;;;;23.92;16.70;;;15.60;98.70;;;;;;4998759;28;20387;-83
2021/09/24 01:32:08;;;;;;;26.27;16.63;;;15.50;98.40;;;;;;5025797;28;20525;-84
2021/09/24 01:34:34;;;;;;;21.40;14.93;;;15.60;98.60;;;;;;4999029;28;20129;-83
2021/09/24 01:36:59;;;;;;;25.25;13.70;;;15.50;98.20;;;;;;5018009;28;20028;-83
2021/09/24 01:39:25;;;;;;;29.55;18.10;;;15.50;98.20;;;;;;5014462;28;20472;-83
2021/09/24 01:41:51;;;;;;;38.88;26.05;;;15.50;98.40;;;;;;5008319;28;20028;-83
2021/09/24 01:44:16;;;;;;;26.67;18.98;;;15.50;97.70;;;;;;4985311;28;20468;-83
2021/09/24 01:46:44;;;;;;;27.30;17.25;;;15.50;98.10;;;;;;4983761;28;20033;-83
2021/09/24 01:49:09;;;;;;;25.83;18.42;;;15.60;98.30;;;;;;5023140;28;20036;-83
2021/09/24 01:51:36;;;;;;;24.33;15.75;;;15.50;98.10;;;;;;5013327;28;20572;-83
2021/09/24 01:54:02;;;;;;;22.88;15.35;;;15.50;98.30;;;;;;5009436;28;20021;-83
2021/09/24 01:56:28;;;;;;;26.25;16.17;;;15.60;98.30;;;;;;5003625;28;20041;-83
2021/09/24 01:58:53;;;;;;;22.75;13.73;;;15.50;98.00;;;;;;5000980;28;20083;-84
2021/09/24 02:01:19;;;;;;;22.15;15.07;;;15.50;98.60;;;;;;5013402;28;20083;-83
2021/09/24 02:03:44;;;;;;;24.70;16.33;;;15.50;98.60;;;;;;4997196;28;20076;-83
2021/09/24 02:06:10;;;;;;;18.60;13.82;;;15.50;98.80;;;;;;5024622;28;20037;-83
2021/09/24 02:08:35;;;;;;;18.08;13.40;;;15.60;98.60;;;;;;5001697;28;20053;-84
2021/09/24 02:11:01;;;;;;;23.02;15.60;;;15.50;98.00;;;;;;4996848;28;20025;-83
2021/09/24 02:13:26;;;;;;;20.83;12.85;;;15.50;98.30;;;;;;5015839;28;20039;-85
2021/09/24 02:15:52;;;;;;;22.35;15.68;;;15.50;98.50;;;;;;5014523;28;20040;-83
2021/09/24 02:18:17;;;;;;;26.58;18.63;;;15.50;98.60;;;;;;5014045;28;20389;-84
2021/09/24 02:20:43;;;;;;;23.48;15.63;;;15.50;99.10;;;;;;4999899;28;20397;-83
2021/09/24 02:23:09;;;;;;;24.77;14.70;;;15.50;98.60;;;;;;5011925;28;20132;-83
2021/09/24 02:25:34;;;;;;;20.67;15.18;;;15.50;98.60;;;;;;5013493;28;20036;-83
2021/09/24 02:28:00;;;;;;;25.45;16.90;;;15.60;98.50;;;;;;5002155;28;20083;-83
2021/09/24 02:30:25;;;;;;;21.55;14.65;;;15.50;98.50;;;;;;4996840;28;20028;-84
2021/09/24 02:32:51;;;;;;;28.83;20.30;;;15.50;98.50;;;;;;4997783;28;20033;-83
2021/09/24 02:35:16;;;;;;;22.00;16.88;;;15.50;98.80;;;;;;5031582;28;20558;-83
2021/09/24 02:37:42;;;;;;;38.47;26.35;;;15.50;98.70;;;;;;5024621;28;20602;-83
2021/09/24 02:40:08;;;;;;;22.48;15.38;;;15.50;99.20;;;;;;5007742;28;20034;-86
2021/09/24 02:42:33;;;;;;;33.20;23.67;;;15.50;98.60;;;;;;5012505;28;20048;-84
2021/09/24 02:44:59;;;;;;;24.73;17.52;;;15.50;98.70;;;;;;5032831;28;20036;-86
2021/09/24 02:47:24;;;;;;;27.88;18.92;;;15.50;98.60;;;;;;5006242;28;20021;-86
2021/09/24 02:49:50;;;;;;;25.17;17.58;;;15.50;98.50;;;;;;4992817;28;20061;-86
2021/09/24 02:52:16;;;;;;;29.52;20.67;;;15.50;98.60;;;;;;5032237;28;20499;-86
2021/09/24 02:54:41;;;;;;;24.35;16.25;;;15.50;98.40;;;;;;5000019;28;20030;-86
2021/09/24 02:57:07;;;;;;;24.20;16.95;;;15.50;98.50;;;;;;5001168;28;20028;-86
2021/09/24 02:59:32;;;;;;;26.27;19.65;;;15.60;98.60;;;;;;5003554;28;20025;-86
2021/09/24 03:01:58;;;;;;;27.52;17.88;;;15.50;98.50;;;;;;5010266;28;20120;-84
2021/09/24 03:04:26;;;;;;;22.40;16.95;;;15.50;98.40;;;;;;5019828;28;20039;-86
2021/09/24 03:06:52;;;;;;;22.98;17.95;;;15.50;98.50;;;;;;5006887;28;20051;-85
2021/09/24 03:09:19;;;;;;;26.98;19.50;;;15.50;98.50;;;;;;5002739;28;20323;-84
2021/09/24 03:11:45;;;;;;;30.67;19.30;;;15.50;98.70;;;;;;5028556;28;20049;-84
2021/09/24 03:14:10;;;;;;;39.13;22.42;;;15.40;98.70;;;;;;5019105;28;20496;-85
2021/09/24 03:16:41;;;;;;;29.38;20.48;;;15.50;98.80;;;;;;5013818;28;20068;-85
2021/09/24 03:19:07;;;;;;;35.10;23.52;;;15.40;98.50;;;;;;5037285;28;20439;-85
2021/09/24 03:21:32;;;;;;;26.30;16.80;;;15.50;98.80;;;;;;5008143;28;20083;-85
2021/09/24 03:23:58;;;;;;;34.00;22.17;;;15.50;98.50;;;;;;5005132;28;20501;-86
2021/09/24 03:26:23;;;;;;;36.92;23.08;;;15.50;98.70;;;;;;5021338;28;20074;-84
2021/09/24 03:28:49;;;;;;;34.08;20.00;;;15.40;98.30;;;;;;4996873;28;20397;-85
2021/09/24 03:31:15;;;;;;;26.77;17.42;;;15.40;98.50;;;;;;5016010;28;20051;-85
2021/09/24 03:33:41;;;;;;;23.63;17.65;;;15.40;98.70;;;;;;5007753;28;20179;-85
2021/09/24 03:36:07;;;;;;;27.58;18.30;;;15.40;98.50;;;;;;5002925;28;20564;-85
2021/09/24 03:38:32;;;;;;;32.78;21.20;;;15.30;98.20;;;;;;5031353;28;20037;-86
2021/09/24 03:40:58;;;;;;;29.25;19.33;;;15.40;98.70;;;;;;5000937;28;20076;-86
2021/09/24 03:43:23;;;;;;;27.77;17.27;;;15.40;98.40;;;;;;5030252;28;20083;-85
2021/09/24 03:45:49;;;;;;;24.55;16.00;;;15.40;98.60;;;;;;5005043;28;20065;-85
2021/09/24 03:48:14;;;;;;;25.23;18.50;;;15.50;98.40;;;;;;5008804;28;20029;-85
2021/09/24 03:50:40;;;;;;;26.42;17.55;;;15.40;98.90;;;;;;5001268;28;20029;-85
2021/09/24 03:53:05;;;;;;;24.73;17.92;;;15.40;98.70;;;;;;5009215;28;20393;-86
2021/09/24 03:55:31;;;;;;;23.23;16.38;;;15.50;98.70;;;;;;5037507;28;20128;-85
2021/09/24 03:57:56;;;;;;;26.45;16.95;;;15.50;98.80;;;;;;5018792;28;20029;-85
2021/09/24 04:00:22;;;;;;;28.30;19.92;;;15.50;99.00;;;;;;5035905;28;20026;-85
2021/09/24 04:02:48;;;;;;;29.50;18.75;;;15.50;98.60;;;;;;5020696;28;20056;-85
2021/09/24 04:05:13;;;;;;;27.27;16.45;;;15.50;99.00;;;;;;5023589;28;20044;-85
2021/09/24 04:07:39;;;;;;;37.20;20.58;;;15.50;98.90;;;;;;5014378;28;20089;-85
2021/09/24 04:10:05;;;;;;;28.73;16.83;;;15.50;98.90;;;;;;5028247;28;20073;-85
2021/09/24 04:12:30;;;;;;;41.10;25.77;;;15.40;98.90;;;;;;5013661;28;20037;-85
2021/09/24 04:14:56;;;;;;;26.25;17.77;;;15.50;99.50;;;;;;5034960;28;20025;-85
2021/09/24 04:17:21;;;;;;;31.80;19.15;;;15.40;99.00;;;;;;5025899;28;20554;-85
2021/09/24 04:19:47;;;;;;;28.85;16.98;;;15.40;99.10;;;;;;5001659;28;20040;-85
2021/09/24 04:22:12;;;;;;;31.70;18.77;;;15.40;98.90;;;;;;5017393;28;20029;-85
2021/09/24 04:24:38;;;;;;;33.35;18.40;;;15.30;98.70;;;;;;5041184;28;20223;-85
2021/09/24 04:27:04;;;;;;;47.63;25.67;;;15.40;98.70;;;;;;5018245;28;20029;-85
2021/09/24 04:29:29;;;;;;;33.65;20.80;;;15.40;99.00;;;;;;5005797;28;20028;-85
2021/09/24 04:31:55;;;;;;;42.33;22.17;;;15.30;99.10;;;;;;5036288;28;20065;-85
2021/09/24 04:34:21;;;;;;;29.17;18.35;;;15.40;99.30;;;;;;5037166;28;20162;-86
2021/09/24 04:36:47;;;;;;;36.20;19.25;;;15.40;99.20;;;;;;5037315;28;20108;-85
2021/09/24 04:39:12;;;;;;;37.95;20.73;;;15.40;99.20;;;;;;5031785;28;20150;-85
2021/09/24 04:41:38;;;;;;;31.40;17.92;;;15.30;99.10;;;;;;5000336;28;20120;-85
2021/09/24 04:44:03;;;;;;;34.92;19.80;;;15.30;99.40;;;;;;5003849;28;20163;-85
2021/09/24 04:46:29;;;;;;;42.38;19.73;;;15.30;99.40;;;;;;5003251;28;20421;-85
2021/09/24 04:48:55;;;;;;;41.90;24.13;;;15.40;99.60;;;;;;5023189;28;20040;-85
2021/09/24 04:51:20;;;;;;;46.17;23.42;;;15.40;99.60;;;;;;5023717;28;20557;-84
2021/09/24 04:53:46;;;;;;;48.10;26.58;;;15.40;99.80;;;;;;5005891;28;20045;-85
2021/09/24 04:56:11;;;;;;;44.60;23.05;;;15.30;99.70;;;;;;5016096;28;20025;-85
2021/09/24 04:58:37;;;;;;;45.88;24.10;;;15.40;99.40;;;;;;4998531;28;20131;-85
2021/09/24 05:01:02;;;;;;;51.42;26.48;;;15.40;99.90;;;;;;5016773;28;20036;-85
2021/09/24 05:03:28;;;;;;;55.22;30.45;;;15.40;99.60;;;;;;4995264;28;20037;-85
2021/09/24 05:05:54;;;;;;;58.92;28.50;;;15.40;99.80;;;;;;5018116;28;20030;-86
2021/09/24 05:08:19;;;;;;;50.08;25.67;;;15.40;99.70;;;;;;5012596;28;20088;-85
2021/09/24 05:10:45;;;;;;;65.28;32.13;;;15.40;99.60;;;;;;5001610;28;20109;-87
2021/09/24 05:13:10;;;;;;;62.20;32.58;;;15.40;99.50;;;;;;5038167;28;20108;-85
2021/09/24 05:15:36;;;;;;;58.83;27.30;;;15.40;99.90;;;;;;5006389;28;20029;-85
2021/09/24 05:18:01;;;;;;;54.80;25.42;;;15.40;99.60;;;;;;5020100;28;20024;-85
2021/09/24 05:20:27;;;;;;;54.42;28.48;;;15.40;99.50;;;;;;5026938;28;20044;-85
2021/09/24 05:22:54;;;;;;;56.97;30.30;;;15.40;99.50;;;;;;5037560;28;20056;-85
2021/09/24 05:25:21;;;;;;;59.60;31.00;;;15.40;99.50;;;;;;4998573;28;20032;-85
2021/09/24 05:27:47;;;;;;;57.65;30.08;;;15.40;99.70;;;;;;4999684;28;20037;-85
2021/09/24 05:30:12;;;;;;;50.70;27.45;;;15.40;99.50;;;;;;4989169;28;20028;-85
2021/09/24 05:32:38;;;;;;;68.22;32.65;;;15.40;99.60;;;;;;5013895;28;20096;-86
2021/09/24 05:35:04;;;;;;;62.08;32.28;;;15.40;99.90;;;;;;5020395;28;20037;-86
2021/09/24 05:37:30;;;;;;;56.17;25.83;;;15.40;99.90;;;;;;5000939;28;20443;-86
2021/09/24 05:39:56;;;;;;;61.05;29.45;;;15.40;99.90;;;;;;5032139;28;20032;-85
2021/09/24 05:42:22;;;;;;;57.63;28.10;;;15.40;99.90;;;;;;5027963;28;20526;-85
2021/09/24 05:44:47;;;;;;;66.28;32.50;;;15.50;99.90;;;;;;5003535;28;20587;-85
2021/09/24 05:47:13;;;;;;;62.60;28.85;;;15.50;99.90;;;;;;4997526;28;20488;-86
2021/09/24 05:49:38;;;;;;;67.28;33.65;;;15.50;99.90;;;;;;5001061;28;20403;-85
2021/09/24 05:52:04;;;;;;;66.95;33.88;;;15.50;99.90;;;;;;4999690;28;20108;-86
2021/09/24 05:54:30;;;;;;;73.25;35.22;;;15.50;99.90;;;;;;5013856;28;20053;-85
2021/09/24 05:56:55;;;;;;;64.38;29.70;;;15.50;99.90;;;;;;5029879;28;20123;-86
2021/09/24 05:59:21;;;;;;;67.30;33.67;;;15.60;99.90;;;;;;5035505;28;20033;-84
2021/09/24 06:01:48;;;;;;;67.47;31.42;;;15.50;99.90;;;;;;5023954;28;20040;-85
2021/09/24 06:04:15;;;;;;;54.25;27.00;;;15.50;99.90;;;;;;5032579;28;20041;-85
2021/09/24 06:06:41;;;;;;;58.15;27.77;;;15.60;99.90;;;;;;5038764;28;20052;-86
2021/09/24 06:09:06;;;;;;;67.75;31.52;;;15.50;99.90;;;;;;5014010;28;20033;-83
2021/09/24 06:11:32;;;;;;;63.55;30.85;;;15.70;99.90;;;;;;5011975;28;20067;-83
2021/09/24 06:13:58;;;;;;;61.72;28.42;;;15.70;99.90;;;;;;4985694;28;20091;-82
2021/09/24 06:16:23;;;;;;;59.38;29.80;;;15.60;99.90;;;;;;4989279;28;20033;-83
2021/09/24 06:18:51;;;;;;;60.63;30.63;;;15.60;99.90;;;;;;4999129;28;20501;-83
2021/09/24 06:21:18;;;;;;;50.95;26.25;;;15.70;99.90;;;;;;5030875;28;20116;-83
2021/09/24 06:23:44;;;;;;;57.00;28.40;;;15.70;99.90;;;;;;5005861;28;20120;-83
2021/09/24 06:26:09;;;;;;;57.33;28.25;;;15.70;99.90;;;;;;5018590;28;20033;-83
2021/09/24 06:28:35;;;;;;;49.40;21.83;;;15.70;99.90;;;;;;5021154;28;20033;-82
2021/09/24 06:31:01;;;;;;;50.47;26.52;;;15.70;99.90;;;;;;4999555;28;20088;-82
2021/09/24 06:33:26;;;;;;;56.00;24.95;;;15.70;99.90;;;;;;5037926;28;20035;-89
2021/09/24 06:35:52;;;;;;;56.33;26.25;;;15.70;99.90;;;;;;5041843;28;20041;-86
2021/09/24 06:38:17;;;;;;;49.35;24.25;;;15.70;99.90;;;;;;5020836;28;20124;-86
2021/09/24 06:40:43;;;;;;;53.13;26.38;;;15.70;99.90;;;;;;5023484;28;20555;-86
2021/09/24 06:43:09;;;;;;;37.40;19.77;;;15.70;99.90;;;;;;5010282;28;20523;-86
2021/09/24 06:45:35;;;;;;;44.28;21.85;;;15.70;99.90;;;;;;5040703;28;20044;-86
2021/09/24 06:48:01;;;;;;;48.53;26.92;;;15.80;99.90;;;;;;5004059;28;20029;-86
2021/09/24 06:50:27;;;;;;;43.05;22.75;;;15.70;99.90;;;;;;5003431;28;20453;-86
2021/09/24 06:52:52;;;;;;;41.10;21.95;;;15.70;99.90;;;;;;5043686;28;20070;-86
2021/09/24 06:55:21;;;;;;;43.47;23.63;;;15.70;99.90;;;;;;5032606;28;20022;-86
2021/09/24 06:57:48;;;;;;;48.38;21.48;;;15.70;99.90;;;;;;5000120;28;20065;-86
2021/09/24 07:00:14;;;;;;;42.45;20.63;;;15.80;99.90;;;;;;5038664;28;20439;-85
2021/09/24 07:02:39;;;;;;;38.35;21.60;;;15.80;99.90;;;;;;5022304;28;20037;-86
2021/09/24 07:05:05;;;;;;;39.70;21.95;;;15.80;99.90;;;;;;4997068;28;20065;-86
2021/09/24 07:07:31;;;;;;;43.97;21.33;;;15.80;99.90;;;;;;4994849;28;20044;-86
2021/09/24 07:10:00;;;;;;;46.92;25.45;;;15.80;99.90;;;;;;5019182;28;20040;-86
2021/09/24 07:12:26;;;;;;;40.28;23.60;;;15.80;99.90;;;;;;5029435;28;20102;-86
2021/09/24 07:14:51;;;;;;;32.55;19.65;;;15.90;99.90;;;;;;5007490;28;20112;-86
2021/09/24 07:17:17;;;;;;;42.72;25.42;;;15.90;99.90;;;;;;5015937;28;20021;-86
2021/09/24 07:19:42;;;;;;;44.58;24.88;;;15.90;99.90;;;;;;5008198;28;20322;-86
2021/09/24 07:22:09;;;;;;;36.50;21.48;;;15.90;99.90;;;;;;5008339;28;20538;-86
2021/09/24 07:24:35;;;;;;;40.05;22.88;;;15.90;99.90;;;;;;5028662;28;20029;-86
2021/09/24 07:27:00;;;;;;;41.10;23.70;;;16.00;99.90;;;;;;5008465;28;20516;-86
2021/09/24 07:29:26;;;;;;;34.80;22.48;;;15.90;99.90;;;;;;5012999;28;20082;-86
2021/09/24 07:31:51;;;;;;;38.45;20.73;;;15.90;99.90;;;;;;5010326;28;20070;-86
2021/09/24 07:34:17;;;;;;;40.92;25.42;;;15.90;99.90;;;;;;5006349;28;20025;-86
2021/09/24 07:36:42;;;;;;;41.17;24.70;;;15.90;99.90;;;;;;5012610;28;20517;-86
2021/09/24 07:39:08;;;;;;;39.70;22.48;;;15.90;99.90;;;;;;5010615;28;20033;-86
2021/09/24 07:41:34;;;;;;;35.80;19.70;;;16.00;99.90;;;;;;5021982;28;20036;-86
2021/09/24 07:44:00;;;;;;;35.65;17.65;;;15.90;99.90;;;;;;5041694;28;20035;-86
2021/09/24 07:46:27;;;;;;;25.88;14.00;;;15.90;99.90;;;;;;5025598;28;20035;-86
2021/09/24 07:48:52;;;;;;;35.97;13.52;;;15.90;99.90;;;;;;5025800;28;20396;-86
2021/09/24 07:51:18;;;;;;;41.92;24.48;;;15.90;99.90;;;;;;5004109;28;20033;-86
2021/09/24 07:53:44;;;;;;;38.38;21.75;;;15.90;99.90;;;;;;5019591;28;20045;-86
2021/09/24 07:56:09;;;;;;;42.15;25.10;;;15.90;99.90;;;;;;5011931;28;20520;-86
2021/09/24 07:58:38;;;;;;;38.13;22.30;;;15.90;99.90;;;;;;5005050;28;20045;-86
2021/09/24 08:01:07;;;;;;;37.38;19.40;;;15.90;99.90;;;;;;5020193;28;20421;-85
2021/09/24 08:03:33;;;;;;;39.00;25.75;;;15.90;99.90;;;;;;5008944;28;20075;-86
2021/09/24 08:06:01;;;;;;;39.42;20.80;;;16.00;99.90;;;;;;5027832;28;20032;-85
2021/09/24 08:08:27;;;;;;;24.92;16.52;;;15.90;99.90;;;;;;5008761;28;20041;-86
2021/09/24 08:10:52;;;;;;;37.03;20.52;;;15.90;99.90;;;;;;5032635;28;20143;-85
2021/09/24 08:13:21;;;;;;;33.13;21.33;;;15.90;99.90;;;;;;5026478;28;20039;-86
2021/09/24 08:15:47;;;;;;;23.35;11.60;;;16.00;99.90;;;;;;4999737;28;20040;-85
2021/09/24 08:18:16;;;;;;;37.33;20.77;;;16.00;99.90;;;;;;5042108;28;20086;-86
2021/09/24 08:20:43;;;;;;;37.47;21.90;;;16.00;99.90;;;;;;5000999;28;20078;-86
2021/09/24 08:23:08;;;;;;;31.85;17.60;;;16.00;99.90;;;;;;5003968;28;20033;-86
2021/09/24 08:25:34;;;;;;;24.42;13.40;;;16.00;99.90;;;;;;5025648;28;20032;-85
2021/09/24 08:27:59;;;;;;;33.85;18.55;;;16.00;99.90;;;;;;5026227;28;20073;-85
2021/09/24 08:30:46;;;;;;;32.13;17.67;;;16.00;99.90;;;;;;5000638;28;20051;-88
2021/09/24 08:33:14;;;;;;;32.38;20.73;;;16.00;99.90;;;;;;4995645;28;20140;-86
2021/09/24 08:35:40;;;;;;;36.72;19.02;;;16.00;99.90;;;;;;5019437;28;20039;-86
2021/09/24 08:38:06;;;;;;;33.25;19.65;;;16.00;99.90;;;;;;5011487;28;20037;-86
2021/09/24 08:40:32;;;;;;;35.05;19.52;;;16.00;99.90;;;;;;5002231;28;20079;-86
2021/09/24 08:42:57;;;;;;;36.38;19.23;;;16.00;99.90;;;;;;5027147;28;20041;-86
2021/09/24 08:45:23;;;;;;;33.67;18.75;;;16.00;99.90;;;;;;5030268;28;20036;-86
2021/09/24 08:48:02;;;;;;;35.65;19.58;;;16.00;99.90;;;;;;5022559;28;20028;-86
2021/09/24 08:50:29;;;;;;;23.98;12.60;;;16.00;99.90;;;;;;5009457;28;20469;-86
2021/09/24 08:52:54;;;;;;;31.83;17.02;;;16.10;99.90;;;;;;5035764;28;20052;-86
2021/09/24 08:55:23;;;;;;;21.80;13.00;;;16.10;99.90;;;;;;5024732;28;20454;-86
2021/09/24 08:57:49;;;;;;;36.72;20.13;;;16.00;99.90;;;;;;5025461;28;20025;-86
2021/09/24 09:00:15;;;;;;;24.30;14.32;;;16.10;99.90;;;;;;5031583;28;20024;-86
2021/09/24 09:03:10;;;;;;;35.10;17.98;;;16.10;99.90;;;;;;5018830;28;20033;-86
2021/09/24 09:05:50;;;;;;;30.08;20.52;;;16.10;99.90;;;;;;5022349;28;20028;-86
2021/09/24 09:08:33;;;;;;;32.92;16.58;;;16.10;99.90;;;;;;5026312;28;20037;-86
2021/09/24 09:11:06;;;;;;;32.65;20.95;;;16.10;99.90;;;;;;5009791;28;20021;-85
2021/09/24 09:13:53;;;;;;;28.85;18.02;;;16.20;99.90;;;;;;4981914;28;20088;-89
2021/09/24 09:16:25;;;;;;;31.17;18.38;;;16.20;99.90;;;;;;5007664;28;20451;-86
2021/09/24 09:19:10;;;;;;;28.13;16.92;;;16.20;99.90;;;;;;5005534;28;20033;-87
2021/09/24 09:21:38;;;;;;;33.28;19.70;;;16.20;99.90;;;;;;5019851;28;20044;-87
2021/09/24 09:24:23;;;;;;;27.88;15.07;;;16.20;99.90;;;;;;5008407;28;20029;-87
2021/09/24 09:27:18;;;;;;;28.92;12.70;;;16.30;99.90;;;;;;5027421;28;20056;-87
2021/09/24 09:30:23;;;;;;;27.73;14.82;;;16.30;99.90;;;;;;5008245;28;20033;-87
2021/09/24 09:33:11;;;;;;;20.23;11.68;;;16.30;99.90;;;;;;5039441;28;20043;-86
2021/09/24 09:35:39;;;;;;;28.65;16.40;;;16.30;99.90;;;;;;5011230;28;20024;-86
2021/09/24 09:38:04;;;;;;;25.63;13.13;;;16.30;99.90;;;;;;5023083;28;20563;-88
2021/09/24 09:40:30;;;;;;;32.35;15.68;;;16.30;99.90;;;;;;5020086;28;20112;-87
2021/09/24 09:42:57;;;;;;;29.45;18.02;;;16.40;99.80;;;;;;5040506;28;20103;-87
2021/09/24 09:45:23;;;;;;;28.55;16.60;;;16.40;99.90;;;;;;5007236;28;20060;-87
2021/09/24 09:47:48;;;;;;;27.40;14.10;;;16.40;99.90;;;;;;5022209;28;20086;-87
2021/09/24 09:50:21;;;;;;;31.00;15.18;;;16.50;99.90;;;;;;5036088;28;20032;-87
2021/09/24 09:53:00;;;;;;;25.15;15.38;;;16.50;99.90;;;;;;5024592;28;20477;-87
2021/09/24 09:55:27;;;;;;;29.00;16.40;;;16.40;99.90;;;;;;5024318;28;20070;-87
2021/09/24 09:57:54;;;;;;;24.25;12.10;;;16.50;99.90;;;;;;5015830;28;20477;-87
2021/09/24 10:00:20;;;;;;;29.55;14.57;;;16.50;99.70;;;;;;5020708;28;20033;-87
2021/09/24 10:02:49;;;;;;;30.60;16.13;;;16.50;99.80;;;;;;5022704;28;20102;-86
2021/09/24 10:05:34;;;;;;;28.15;16.25;;;16.70;99.90;;;;;;5004687;28;20021;-86
2021/09/24 10:08:01;;;;;;;27.33;16.63;;;16.60;99.90;;;;;;5016698;28;20074;-87
2021/09/24 10:10:27;;;;;;;23.45;14.60;;;16.80;99.90;;;;;;5001464;28;20025;-86
2021/09/24 10:12:52;;;;;;;20.60;10.85;;;16.80;99.90;;;;;;4997584;28;20495;-86
2021/09/24 10:15:18;;;;;;;28.77;14.32;;;17.00;99.70;;;;;;5004759;28;20028;-87
2021/09/24 10:17:50;;;;;;;25.27;14.80;;;17.00;99.40;;;;;;4996611;28;20037;-86
2021/09/24 10:20:37;;;;;;;27.30;15.02;;;17.10;99.90;;;;;;5006683;28;20099;-87
2021/09/24 10:23:02;;;;;;;22.90;13.82;;;17.30;99.60;;;;;;5025506;28;20036;-87
2021/09/24 10:25:28;;;;;;;20.92;13.50;;;17.50;99.70;;;;;;4997053;28;20035;-87
2021/09/24 10:27:53;;;;;;;24.50;14.13;;;17.70;99.70;;;;;;5031640;28;20087;-87
2021/09/24 10:30:29;;;;;;;24.25;13.45;;;17.80;98.90;;;;;;5014304;28;20029;-87
2021/09/24 10:32:56;;;;;;;18.30;12.23;;;17.90;99.50;;;;;;5006696;28;20029;-87
2021/09/24 10:35:22;;;;;;;18.80;12.43;;;18.10;99.80;;;;;;5034120;28;20040;-87
2021/09/24 10:37:48;;;;;;;19.60;11.75;;;18.20;99.10;;;;;;5024502;28;20037;-87
2021/09/24 10:40:22;;;;;;;20.25;12.18;;;18.10;98.30;;;;;;4986830;28;20033;-87
2021/09/24 10:42:51;;;;;;;15.80;10.65;;;18.30;99.40;;;;;;5051282;28;20040;-87
2021/09/24 10:45:19;;;;;;;18.25;10.85;;;18.30;98.80;;;;;;5029651;28;20484;-87
2021/09/24 10:47:56;;;;;;;18.13;11.55;;;18.50;98.50;;;;;;5007937;28;20488;-88
2021/09/24 10:50:32;;;;;;;17.48;10.35;;;18.60;98.30;;;;;;5055837;28;20082;-87
2021/09/24 10:53:23;;;;;;;20.88;11.40;;;18.70;98.00;;;;;;5056429;28;20044;-87
2021/09/24 10:55:54;;;;;;;14.00;8.25;;;18.80;98.30;;;;;;5031044;28;20044;-85
2021/09/24 10:58:28;;;;;;;19.38;10.68;;;18.80;97.60;;;;;;5052387;28;20072;-87
2021/09/24 11:01:30;;;;;;;16.60;9.90;;;18.90;97.80;;;;;;5045182;28;20120;-90
2021/09/24 11:04:00;;;;;;;17.67;12.02;;;19.20;97.60;;;;;;5009860;28;20336;-87
2021/09/24 11:06:38;;;;;;;19.58;12.48;;;19.00;97.90;;;;;;5017202;28;20446;-87
2021/09/24 11:09:05;;;;;;;16.98;9.68;;;19.10;98.40;;;;;;5034962;28;20033;-87
2021/09/24 11:11:35;;;;;;;17.60;12.18;;;19.20;96.90;;;;;;5024710;28;20032;-87
2021/09/24 11:14:25;;;;;;;12.88;7.80;;;19.20;98.50;;;;;;5025966;28;20036;-88
2021/09/24 11:16:56;;;;;;;16.77;9.25;;;19.10;97.70;;;;;;5018331;28;20076;-87
2021/09/24 11:19:40;;;;;;;20.73;11.77;;;19.50;98.20;;;;;;5024331;28;20395;-87
2021/09/24 11:22:08;;;;;;;14.15;8.40;;;19.60;98.60;;;;;;5036468;28;20036;-88
2021/09/24 11:24:38;;;;;;;15.40;9.87;;;19.80;96.80;;;;;;4305712;28;10000550;-88
2021/09/24 11:30:04;;;;;;;13.43;9.05;;;20.00;96.90;;;;;;4989438;28;20044;-88
2021/09/24 11:32:45;;;;;;;12.65;7.55;;;20.20;96.30;;;;;;5035862;28;20214;-88
2021/09/24 11:35:12;;;;;;;15.27;10.63;;;20.30;97.10;;;;;;5020495;28;20076;-88
2021/09/24 11:37:39;;;;;;;12.80;8.85;;;20.50;96.80;;;;;;5019427;28;20508;-87
2021/09/24 11:40:07;;;;;;;13.77;9.65;;;20.30;95.50;;;;;;5002360;28;20470;-88
2021/09/24 11:42:34;;;;;;;13.48;8.57;;;20.30;95.80;;;;;;5010197;28;20097;-88
2021/09/24 11:45:00;;;;;;;10.48;7.80;;;20.60;97.20;;;;;;5026190;28;20036;-88
2021/09/24 11:47:30;;;;;;;11.02;8.00;;;20.70;96.70;;;;;;5016582;28;20037;-88
2021/09/24 11:50:10;;;;;;;11.93;8.20;;;20.80;97.10;;;;;;5000465;28;20037;-88
2021/09/24 11:52:47;;;;;;;11.27;8.02;;;20.50;95.70;;;;;;5012958;28;20065;-87
2021/09/24 11:55:15;;;;;;;8.10;4.60;;;20.60;95.20;;;;;;5017598;28;20421;-88
2021/09/24 11:57:41;;;;;;;12.88;7.25;;;20.90;95.30;;;;;;5022163;28;20029;-88
2021/09/24 12:00:11;;;;;;;9.80;6.60;;;21.00;96.20;;;;;;5014012;28;20025;-87
2021/09/24 12:02:36;;;;;;;10.35;4.85;;;21.30;96.90;;;;;;5027768;28;20037;-87
2021/09/24 12:05:03;;;;;;;7.65;6.53;;;21.30;94.80;;;;;;5005803;28;20036;-88
2021/09/24 12:07:30;;;;;;;7.55;5.82;;;21.10;94.40;;;;;;5021435;28;20498;-88
2021/09/24 12:10:03;;;;;;;11.55;6.15;;;21.20;94.30;;;;;;5019978;28;20357;-88
2021/09/24 12:12:28;;;;;;;9.93;6.35;;;21.30;95.60;;;;;;5019432;28;20493;-87
2021/09/24 12:15:01;;;;;;;10.30;6.18;;;20.90;93.90;;;;;;5005197;28;20040;-87
2021/09/24 12:17:28;;;;;;;7.78;6.57;;;20.90;94.30;;;;;;5004225;28;20048;-87
2021/09/24 12:19:53;;;;;;;7.20;4.97;;;21.10;94.70;;;;;;5022546;28;20079;-87
2021/09/24 12:22:19;;;;;;;10.52;5.82;;;21.70;94.50;;;;;;5032584;28;20029;-87
2021/09/24 12:25:12;;;;;;;;;;;;;;;;;;;;;
2021/09/24 12:27:39;;;;;;;6.90;5.50;;;21.90;94.80;;;;;;5010565;28;21308;-86
2021/09/24 12:30:16;;;;;;;12.63;5.63;;;22.10;94.70;;;;;;5019598;28;20041;-87
2021/09/24 12:32:44;;;;;;;7.97;5.00;;;21.80;93.40;;;;;;5027079;28;20396;-87
2021/09/24 12:35:12;;;;;;;7.60;4.78;;;22.10;94.20;;;;;;5006428;28;20057;-87
2021/09/24 12:37:42;;;;;;;9.57;4.97;;;22.20;94.70;;;;;;5004465;28;20123;-86